Time;durP1;ratioP1;P1;durP2;ratioP2;P2;SDS_P1;SDS_P2;PMS_P1;PMS_P2;Temp;Humidity;BMP_temperature;BMP_pressure;BME280_temperature;BME280_humidity;BME280_pressure;Samples;Min_cycle;Max_cycle;Signal;HPM_P1;HPM_P2
2021/09/10 00:00:22;;;;;;;8.80;7.15;;;23.00;75.20;;;;;;5050438;28;20515;-80
2021/09/10 00:02:48;;;;;;;9.73;7.28;;;23.00;75.30;;;;;;5052541;28;20036;-81
2021/09/10 00:05:13;;;;;;;7.63;6.90;;;22.90;75.40;;;;;;5070655;28;20487;-81
2021/09/10 00:07:39;;;;;;;7.60;6.75;;;22.90;75.70;;;;;;5067884;28;20094;-81
2021/09/10 00:10:05;;;;;;;9.02;7.80;;;22.90;75.70;;;;;;5054032;28;20067;-81
2021/09/10 00:12:31;;;;;;;8.48;6.75;;;22.80;75.80;;;;;;5054069;28;20024;-81
2021/09/10 00:14:56;;;;;;;7.50;6.30;;;22.80;76.10;;;;;;5073677;28;20040;-81
2021/09/10 00:17:22;;;;;;;7.88;6.05;;;22.80;76.10;;;;;;5073665;28;20021;-80
2021/09/10 00:19:47;;;;;;;8.32;7.13;;;22.80;76.00;;;;;;5054735;28;20060;-82
2021/09/10 00:22:13;;;;;;;8.88;6.95;;;22.80;76.20;;;;;;5055461;28;20028;-81
2021/09/10 00:24:39;;;;;;;11.60;8.70;;;22.70;76.30;;;;;;5072169;28;20534;-80
2021/09/10 00:27:04;;;;;;;9.32;8.23;;;22.60;76.80;;;;;;5072236;28;20052;-81
2021/09/10 00:29:30;;;;;;;12.23;9.63;;;22.60;77.20;;;;;;5072132;28;20056;-80
2021/09/10 00:31:56;;;;;;;10.50;7.70;;;22.50;77.90;;;;;;5074064;28;20028;-82
2021/09/10 00:34:21;;;;;;;7.82;7.03;;;22.40;77.90;;;;;;5056499;28;20095;-81
2021/09/10 00:36:47;;;;;;;7.03;5.80;;;22.40;77.90;;;;;;5053449;28;20542;-81
2021/09/10 00:39:13;;;;;;;6.35;5.32;;;22.40;77.70;;;;;;5068335;28;20066;-81
2021/09/10 00:41:40;;;;;;;7.68;6.35;;;22.40;77.70;;;;;;5073880;28;20060;-81
2021/09/10 00:44:06;;;;;;;9.20;6.93;;;22.40;77.80;;;;;;5073699;28;20070;-80
2021/09/10 00:46:33;;;;;;;8.65;6.65;;;22.30;78.00;;;;;;5071051;28;20031;-80
2021/09/10 00:48:58;;;;;;;8.82;7.93;;;22.30;78.10;;;;;;5073707;28;20048;-80
2021/09/10 00:51:24;;;;;;;8.68;7.50;;;22.30;78.30;;;;;;5073778;28;20055;-81
2021/09/10 00:53:49;;;;;;;9.23;8.00;;;22.20;78.30;;;;;;5073208;28;20028;-80
2021/09/10 00:56:15;;;;;;;6.95;5.50;;;22.20;78.60;;;;;;5072552;28;20028;-80
2021/09/10 00:58:40;;;;;;;7.05;5.38;;;22.20;78.50;;;;;;5059175;28;20025;-81
2021/09/10 01:01:06;;;;;;;9.95;8.80;;;22.30;78.20;;;;;;5053456;28;20028;-82
2021/09/10 01:03:32;;;;;;;12.52;9.60;;;22.20;78.60;;;;;;5053360;28;20057;-82
2021/09/10 01:05:58;;;;;;;10.13;8.50;;;22.20;78.80;;;;;;5052655;28;20025;-82
2021/09/10 01:08:25;;;;;;;8.70;6.03;;;22.10;78.80;;;;;;5060235;28;20028;-81
2021/09/10 01:10:52;;;;;;;6.70;6.00;;;22.20;78.80;;;;;;5073464;28;20050;-81
2021/09/10 01:13:17;;;;;;;6.80;5.55;;;22.20;78.60;;;;;;5073246;28;20378;-82
2021/09/10 01:15:44;;;;;;;8.80;7.78;;;22.20;78.60;;;;;;5072615;28;20032;-82
2021/09/10 01:18:09;;;;;;;9.75;7.75;;;22.10;78.80;;;;;;5053194;28;20021;-82
2021/09/10 01:20:35;;;;;;;8.85;7.68;;;22.10;79.00;;;;;;5052218;28;20326;-82
2021/09/10 01:23:00;;;;;;;7.90;6.28;;;22.00;79.10;;;;;;5053023;28;20498;-82
2021/09/10 01:25:26;;;;;;;8.15;6.80;;;22.10;79.10;;;;;;5053059;28;20502;-82
2021/09/10 01:27:57;;;;;;;8.55;6.75;;;22.00;79.10;;;;;;5052758;28;20021;-81
2021/09/10 01:30:28;;;;;;;8.93;6.82;;;22.00;79.00;;;;;;5052601;28;20075;-81
2021/09/10 01:32:55;;;;;;;6.95;6.25;;;22.00;79.00;;;;;;5052561;28;20033;-82
2021/09/10 01:35:20;;;;;;;9.82;7.80;;;22.00;79.00;;;;;;5052574;28;20029;-83
2021/09/10 01:37:46;;;;;;;8.68;7.18;;;21.90;79.20;;;;;;5068738;28;20428;-83
2021/09/10 01:40:13;;;;;;;8.60;6.75;;;21.90;79.30;;;;;;5071593;28;20029;-83
2021/09/10 01:42:39;;;;;;;6.53;5.15;;;21.90;79.30;;;;;;5072706;28;20029;-83
2021/09/10 01:45:06;;;;;;;9.05;6.82;;;21.90;79.20;;;;;;5072634;28;20067;-83
2021/09/10 01:47:34;;;;;;;6.53;5.80;;;21.90;79.30;;;;;;5071615;28;20058;-83
2021/09/10 01:50:00;;;;;;;9.15;7.82;;;21.90;79.20;;;;;;5072680;28;20025;-83
2021/09/10 01:52:26;;;;;;;8.85;7.95;;;21.90;79.30;;;;;;5072342;28;20028;-83
2021/09/10 01:54:51;;;;;;;6.68;5.97;;;21.90;79.50;;;;;;5071811;28;20032;-82
2021/09/10 01:57:17;;;;;;;6.15;5.15;;;21.90;79.40;;;;;;5051744;28;20040;-83
2021/09/10 01:59:44;;;;;;;9.68;6.65;;;21.90;79.20;;;;;;5052376;28;20051;-83
2021/09/10 02:02:10;;;;;;;11.45;8.77;;;21.90;79.20;;;;;;5059557;28;20524;-82
2021/09/10 02:04:36;;;;;;;9.88;7.97;;;21.90;79.50;;;;;;5095871;28;20379;-82
2021/09/10 02:07:03;;;;;;;8.52;6.43;;;21.80;79.70;;;;;;5071900;28;20028;-83
2021/09/10 02:09:28;;;;;;;7.32;5.97;;;21.80;79.70;;;;;;5072455;28;20096;-82
2021/09/10 02:11:54;;;;;;;8.45;6.63;;;21.80;79.60;;;;;;5072196;28;20063;-84
2021/09/10 02:14:19;;;;;;;9.25;6.65;;;21.80;79.50;;;;;;5072086;28;20024;-84
2021/09/10 02:16:45;;;;;;;7.78;6.13;;;21.80;79.60;;;;;;5052205;28;20035;-83
2021/09/10 02:19:10;;;;;;;7.50;6.30;;;21.80;79.60;;;;;;5052066;28;20423;-84
2021/09/10 02:21:37;;;;;;;6.53;5.25;;;21.70;79.60;;;;;;5056972;28;20056;-84
2021/09/10 02:24:04;;;;;;;7.20;6.00;;;21.70;79.50;;;;;;5071748;28;20017;-84
2021/09/10 02:26:30;;;;;;;8.63;6.32;;;21.70;79.50;;;;;;5071459;28;20128;-81
2021/09/10 02:28:55;;;;;;;7.88;6.85;;;21.70;79.50;;;;;;5071827;28;20024;-81
2021/09/10 02:31:21;;;;;;;11.07;9.38;;;21.80;79.60;;;;;;5070558;28;20025;-81
2021/09/10 02:33:46;;;;;;;10.23;6.50;;;21.70;79.80;;;;;;5071620;28;20045;-82
2021/09/10 02:36:12;;;;;;;6.15;5.15;;;21.70;79.80;;;;;;5071032;28;20032;-81
2021/09/10 02:38:38;;;;;;;6.63;5.53;;;21.60;79.70;;;;;;5071691;28;20024;-81
2021/09/10 02:41:03;;;;;;;6.20;5.30;;;21.60;79.70;;;;;;5069880;28;20107;-81
2021/09/10 02:43:29;;;;;;;6.05;5.03;;;21.60;79.60;;;;;;5058652;28;20108;-82
2021/09/10 02:45:55;;;;;;;7.80;5.95;;;21.60;79.50;;;;;;5050145;28;20025;-81
2021/09/10 02:48:20;;;;;;;8.13;6.25;;;21.60;79.70;;;;;;5051343;28;20106;-81
2021/09/10 02:50:46;;;;;;;8.93;5.55;;;21.60;79.80;;;;;;5054059;28;20063;-80
2021/09/10 02:53:11;;;;;;;10.43;7.10;;;21.50;79.80;;;;;;5052046;28;20025;-81
2021/09/10 02:55:37;;;;;;;7.03;5.80;;;21.50;79.80;;;;;;5051219;28;20501;-81
2021/09/10 02:58:02;;;;;;;7.18;4.88;;;21.50;79.80;;;;;;5050947;28;20024;-81
2021/09/10 03:00:28;;;;;;;7.15;6.18;;;21.50;79.70;;;;;;5051548;28;20024;-82
2021/09/10 03:02:53;;;;;;;7.63;6.18;;;21.50;79.70;;;;;;5051102;28;20110;-83
2021/09/10 03:05:19;;;;;;;6.45;5.70;;;21.50;79.60;;;;;;5051381;28;20021;-82
2021/09/10 03:07:44;;;;;;;8.30;6.75;;;21.50;79.70;;;;;;5051001;28;20009;-82
2021/09/10 03:10:10;;;;;;;8.77;7.35;;;21.50;79.90;;;;;;5050821;28;20021;-82
2021/09/10 03:12:37;;;;;;;6.50;5.35;;;21.40;80.00;;;;;;5051023;28;20025;-82
2021/09/10 03:15:05;;;;;;;6.43;5.43;;;21.40;80.00;;;;;;5049395;28;20079;-82
2021/09/10 03:17:31;;;;;;;8.50;5.25;;;21.30;79.90;;;;;;5050575;28;20021;-81
2021/09/10 03:19:56;;;;;;;6.68;5.60;;;21.30;79.90;;;;;;5050976;28;20383;-81
2021/09/10 03:22:22;;;;;;;6.15;5.55;;;21.30;80.00;;;;;;5050922;28;20103;-81
2021/09/10 03:24:47;;;;;;;7.30;5.55;;;21.30;80.00;;;;;;5069051;28;20506;-82
2021/09/10 03:27:13;;;;;;;6.30;5.30;;;21.30;80.00;;;;;;5070089;28;20021;-82
2021/09/10 03:29:39;;;;;;;6.28;5.57;;;21.30;80.00;;;;;;5070848;28;20028;-82
2021/09/10 03:32:05;;;;;;;5.75;5.05;;;21.30;80.00;;;;;;5070969;28;20028;-82
2021/09/10 03:34:31;;;;;;;6.43;5.10;;;21.30;79.90;;;;;;5053254;28;20037;-82
2021/09/10 03:36:57;;;;;;;7.22;5.82;;;21.30;79.90;;;;;;5050162;28;20367;-82
2021/09/10 03:39:23;;;;;;;6.43;4.53;;;21.30;80.00;;;;;;5050242;28;20379;-82
2021/09/10 03:41:48;;;;;;;5.60;4.65;;;21.30;79.90;;;;;;5050951;28;20017;-83
2021/09/10 03:44:14;;;;;;;5.68;4.45;;;21.30;80.00;;;;;;5054533;28;20048;-82
2021/09/10 03:46:39;;;;;;;6.38;5.45;;;21.20;80.00;;;;;;5063395;28;20082;-82
2021/09/10 03:49:05;;;;;;;6.20;4.93;;;21.20;80.00;;;;;;5074550;28;20470;-82
2021/09/10 03:51:30;;;;;;;5.30;4.72;;;21.20;80.00;;;;;;5074686;28;20024;-82
2021/09/10 03:53:56;;;;;;;4.70;4.05;;;21.30;79.90;;;;;;5064241;28;20029;-82
2021/09/10 03:56:21;;;;;;;6.35;4.97;;;21.30;79.80;;;;;;5053902;28;20078;-83
2021/09/10 03:58:47;;;;;;;6.65;5.38;;;21.20;79.80;;;;;;5054096;28;20028;-83
2021/09/10 04:01:13;;;;;;;5.75;4.72;;;21.20;79.80;;;;;;5054142;28;20025;-82
2021/09/10 04:03:38;;;;;;;5.90;4.43;;;21.20;79.90;;;;;;5082913;28;20028;-83
2021/09/10 04:06:04;;;;;;;5.50;4.68;;;21.20;79.90;;;;;;5072553;28;20025;-82
2021/09/10 04:08:29;;;;;;;6.00;4.97;;;21.20;79.90;;;;;;5073340;28;20025;-82
2021/09/10 04:10:55;;;;;;;5.60;4.28;;;21.20;79.80;;;;;;5074393;28;20024;-81
2021/09/10 04:13:20;;;;;;;7.45;5.90;;;21.20;79.80;;;;;;5073121;28;20027;-82
2021/09/10 04:15:46;;;;;;;7.28;6.13;;;21.20;79.80;;;;;;5072441;28;20497;-82
2021/09/10 04:18:11;;;;;;;6.65;5.00;;;21.10;80.00;;;;;;5072894;28;20024;-83
2021/09/10 04:20:37;;;;;;;6.18;5.00;;;21.10;80.00;;;;;;5074076;28;20024;-80
2021/09/10 04:23:02;;;;;;;5.63;4.72;;;21.10;80.00;;;;;;5054282;28;20029;-81
2021/09/10 04:25:28;;;;;;;5.40;4.57;;;21.10;80.00;;;;;;5052671;28;20035;-81
2021/09/10 04:27:54;;;;;;;6.78;6.07;;;21.10;79.90;;;;;;5057006;28;20027;-81
2021/09/10 04:30:20;;;;;;;7.22;5.78;;;21.00;80.00;;;;;;5074509;28;20055;-82
2021/09/10 04:32:46;;;;;;;7.72;6.05;;;21.00;80.20;;;;;;5072352;28;20040;-82
2021/09/10 04:35:14;;;;;;;5.97;4.88;;;20.90;80.30;;;;;;5061532;28;20115;-82
2021/09/10 04:37:40;;;;;;;5.75;4.82;;;20.90;80.30;;;;;;5052144;28;20025;-83
2021/09/10 04:40:07;;;;;;;8.23;6.05;;;20.90;80.20;;;;;;5054064;28;20021;-82
2021/09/10 04:42:33;;;;;;;5.93;5.03;;;20.90;80.30;;;;;;5054131;28;20032;-80
2021/09/10 04:44:58;;;;;;;6.15;4.50;;;20.90;80.30;;;;;;5071945;28;20024;-80
2021/09/10 04:47:26;;;;;;;7.13;5.80;;;20.90;80.30;;;;;;5073290;28;20081;-80
2021/09/10 04:49:52;;;;;;;6.25;5.03;;;20.90;80.40;;;;;;5073977;28;20013;-81
2021/09/10 04:52:17;;;;;;;6.40;4.22;;;20.80;80.40;;;;;;5070469;28;20783;-80
2021/09/10 04:54:44;;;;;;;6.90;4.65;;;20.80;80.40;;;;;;5072085;28;20059;-79
2021/09/10 04:57:10;;;;;;;4.07;3.55;;;20.80;80.40;;;;;;5072326;28;20037;-79
2021/09/10 04:59:35;;;;;;;7.07;6.38;;;20.80;80.30;;;;;;5073814;28;20012;-80
2021/09/10 05:02:01;;;;;;;6.25;4.90;;;20.80;80.50;;;;;;5076141;28;20044;-81
2021/09/10 05:04:27;;;;;;;6.82;5.25;;;20.80;80.60;;;;;;5072639;28;20024;-81
2021/09/10 05:06:53;;;;;;;6.10;4.90;;;20.80;80.70;;;;;;5072756;28;20109;-81
2021/09/10 05:09:18;;;;;;;5.65;4.53;;;20.80;80.60;;;;;;5073382;28;20036;-80
2021/09/10 05:11:44;;;;;;;5.85;4.78;;;20.80;80.60;;;;;;5071625;28;20070;-81
2021/09/10 05:14:10;;;;;;;6.15;5.10;;;20.80;80.50;;;;;;5069963;28;20126;-81
2021/09/10 05:16:36;;;;;;;5.57;4.18;;;20.80;80.50;;;;;;5071604;28;20026;-81
2021/09/10 05:19:03;;;;;;;6.78;5.10;;;20.80;80.50;;;;;;5069241;28;20039;-81
2021/09/10 05:21:28;;;;;;;5.65;4.45;;;20.80;80.60;;;;;;5072006;28;20028;-80
2021/09/10 05:23:54;;;;;;;5.47;4.65;;;20.80;80.50;;;;;;5070544;28;20386;-81
2021/09/10 05:26:19;;;;;;;5.10;4.60;;;20.80;80.60;;;;;;5065481;28;20035;-81
2021/09/10 05:28:45;;;;;;;7.38;5.00;;;20.80;80.60;;;;;;5068728;28;20078;-80
2021/09/10 05:31:11;;;;;;;5.45;4.47;;;20.80;80.70;;;;;;5071423;28;20060;-81
2021/09/10 05:33:37;;;;;;;6.32;5.30;;;20.90;80.70;;;;;;5071503;28;20495;-81
2021/09/10 05:36:04;;;;;;;6.63;4.50;;;20.90;80.50;;;;;;5071340;28;20140;-81
2021/09/10 05:38:29;;;;;;;6.88;4.78;;;20.90;80.40;;;;;;5078100;28;20077;-81
2021/09/10 05:40:55;;;;;;;4.60;3.53;;;21.00;80.40;;;;;;5072732;28;20020;-80
2021/09/10 05:43:20;;;;;;;4.32;3.88;;;21.00;80.10;;;;;;5071985;28;20020;-80
2021/09/10 05:45:46;;;;;;;4.65;3.92;;;21.20;80.00;;;;;;5067805;28;20039;-81
2021/09/10 05:48:11;;;;;;;6.10;4.90;;;21.50;79.70;;;;;;5054265;28;20025;-79
2021/09/10 05:50:37;;;;;;;4.90;4.35;;;22.10;78.60;;;;;;5057198;28;20016;-80
2021/09/10 05:53:03;;;;;;;5.43;4.30;;;22.60;77.00;;;;;;5072706;28;20101;-83
2021/09/10 05:55:28;;;;;;;5.05;4.38;;;22.50;76.10;;;;;;5061697;28;20031;-82
2021/09/10 05:57:54;;;;;;;5.90;5.03;;;22.30;76.30;;;;;;5065289;28;20111;-81
2021/09/10 06:00:19;;;;;;;7.15;5.05;;;22.20;76.80;;;;;;5077463;28;20059;-82
2021/09/10 06:02:45;;;;;;;7.45;6.05;;;22.00;77.20;;;;;;5071223;28;20132;-81
2021/09/10 06:05:11;;;;;;;7.70;6.30;;;21.90;77.60;;;;;;5070038;28;20028;-83
2021/09/10 06:07:36;;;;;;;6.25;4.03;;;21.70;78.20;;;;;;5065401;28;20029;-82
2021/09/10 06:10:02;;;;;;;5.40;4.57;;;21.70;79.10;;;;;;5062059;28;20028;-81
2021/09/10 06:12:28;;;;;;;6.55;4.47;;;21.70;78.60;;;;;;5053189;28;20132;-80
2021/09/10 06:14:54;;;;;;;5.22;4.45;;;21.70;78.60;;;;;;5058714;28;20183;-81
2021/09/10 06:17:19;;;;;;;7.15;5.68;;;21.80;78.60;;;;;;5069988;28;20036;-82
2021/09/10 06:19:45;;;;;;;5.68;4.60;;;21.90;78.50;;;;;;5071845;28;20055;-81
2021/09/10 06:22:12;;;;;;;4.95;4.10;;;21.90;78.20;;;;;;5063240;28;20043;-81
2021/09/10 06:24:38;;;;;;;5.97;4.60;;;22.00;78.00;;;;;;5070700;28;20128;-81
2021/09/10 06:27:04;;;;;;;6.82;4.85;;;22.00;78.00;;;;;;5071734;28;20059;-81
2021/09/10 06:29:29;;;;;;;5.95;4.93;;;22.30;77.40;;;;;;5062228;28;20025;-82
2021/09/10 06:31:55;;;;;;;7.10;4.78;;;22.30;76.90;;;;;;5066060;28;20029;-82
2021/09/10 06:34:21;;;;;;;6.85;5.50;;;22.20;77.10;;;;;;5066019;28;20033;-81
2021/09/10 06:36:50;;;;;;;6.05;3.72;;;22.00;77.50;;;;;;5055077;28;20116;-81
2021/09/10 06:39:18;;;;;;;6.38;4.50;;;21.90;77.80;;;;;;5055746;28;20466;-83
2021/09/10 06:41:44;;;;;;;5.45;4.43;;;21.90;78.10;;;;;;5068140;28;20458;-82
2021/09/10 06:44:10;;;;;;;6.78;5.38;;;21.80;78.20;;;;;;5066888;28;20021;-84
2021/09/10 06:46:37;;;;;;;7.60;6.10;;;21.80;78.30;;;;;;5065960;28;20036;-81
2021/09/10 06:49:03;;;;;;;10.07;7.50;;;21.90;78.40;;;;;;5069021;28;20020;-81
2021/09/10 06:51:28;;;;;;;9.23;6.03;;;21.80;78.60;;;;;;5064913;28;20017;-80
2021/09/10 06:53:54;;;;;;;6.10;4.53;;;21.70;78.70;;;;;;5070862;28;20052;-81
2021/09/10 06:56:19;;;;;;;7.80;5.63;;;21.90;78.70;;;;;;5070609;28;20042;-80
2021/09/10 06:58:45;;;;;;;6.70;5.22;;;22.10;78.30;;;;;;5070701;28;20340;-80
2021/09/10 07:01:12;;;;;;;7.63;5.90;;;22.10;78.00;;;;;;5070607;28;20025;-80
2021/09/10 07:03:37;;;;;;;8.35;6.18;;;22.00;78.10;;;;;;5070758;28;20021;-79
2021/09/10 07:06:03;;;;;;;6.55;5.22;;;22.00;78.30;;;;;;5068829;28;20021;-79
2021/09/10 07:08:30;;;;;;;7.63;5.95;;;21.90;78.50;;;;;;5070835;28;20032;-81
2021/09/10 07:10:55;;;;;;;8.23;5.85;;;21.80;78.60;;;;;;5070907;28;20036;-80
2021/09/10 07:13:21;;;;;;;6.05;4.47;;;21.80;78.80;;;;;;5070700;28;20020;-81
2021/09/10 07:15:46;;;;;;;5.85;4.35;;;21.80;78.70;;;;;;5069464;28;20037;-78
2021/09/10 07:18:12;;;;;;;7.72;6.45;;;21.90;78.60;;;;;;5071222;28;20029;-79
2021/09/10 07:20:37;;;;;;;7.78;6.45;;;21.80;78.60;;;;;;5070740;28;20025;-80
2021/09/10 07:23:03;;;;;;;6.35;4.75;;;21.80;78.80;;;;;;5071151;28;20032;-79
2021/09/10 07:25:28;;;;;;;6.78;5.18;;;21.70;78.80;;;;;;5071127;28;20052;-79
2021/09/10 07:27:54;;;;;;;7.80;5.88;;;21.70;78.70;;;;;;5070965;28;20048;-78
2021/09/10 07:30:20;;;;;;;5.25;4.60;;;21.70;78.90;;;;;;5069751;28;20021;-79
2021/09/10 07:32:45;;;;;;;7.28;4.70;;;21.70;79.00;;;;;;5070934;28;20480;-78
2021/09/10 07:35:11;;;;;;;7.00;5.05;;;21.70;78.90;;;;;;5071057;28;20378;-79
2021/09/10 07:37:37;;;;;;;8.63;5.85;;;21.70;78.90;;;;;;5070486;28;20032;-79
2021/09/10 07:40:06;;;;;;;6.70;5.88;;;21.70;78.90;;;;;;5070554;28;20020;-78
2021/09/10 07:42:32;;;;;;;6.45;5.53;;;21.70;79.10;;;;;;5068828;28;20030;-78
2021/09/10 07:44:58;;;;;;;5.75;4.70;;;21.70;79.10;;;;;;5063091;28;20367;-79
2021/09/10 07:47:23;;;;;;;5.63;4.32;;;21.70;79.10;;;;;;5064733;28;20021;-79
2021/09/10 07:49:49;;;;;;;4.88;4.00;;;21.70;78.90;;;;;;5063590;28;20486;-78
2021/09/10 07:52:15;;;;;;;5.22;4.50;;;21.80;78.80;;;;;;5065471;28;20108;-79
2021/09/10 07:54:40;;;;;;;6.78;5.55;;;21.80;78.70;;;;;;5065367;28;20100;-79
2021/09/10 07:57:06;;;;;;;6.60;5.90;;;21.80;78.70;;;;;;5064842;28;20029;-80
2021/09/10 07:59:31;;;;;;;9.05;7.85;;;21.90;78.70;;;;;;5065150;28;20025;-78
2021/09/10 08:01:57;;;;;;;9.45;6.80;;;21.80;78.70;;;;;;5069420;28;20029;-78
2021/09/10 08:04:24;;;;;;;6.85;4.68;;;21.70;78.90;;;;;;5069751;28;20483;-78
2021/09/10 08:06:49;;;;;;;7.57;5.10;;;21.80;79.00;;;;;;5069343;28;20025;-79
2021/09/10 08:09:15;;;;;;;7.57;4.75;;;21.80;78.80;;;;;;5069497;28;20420;-77
2021/09/10 08:11:40;;;;;;;8.05;6.03;;;21.90;78.70;;;;;;5068929;28;20025;-77
2021/09/10 08:14:10;;;;;;;7.60;4.82;;;22.00;78.50;;;;;;5069526;28;20069;-79
2021/09/10 08:16:35;;;;;;;5.95;4.80;;;22.10;78.30;;;;;;5068330;28;20073;-79
2021/09/10 08:19:01;;;;;;;4.80;4.13;;;22.20;78.10;;;;;;5069372;28;20474;-79
2021/09/10 08:21:27;;;;;;;5.55;3.88;;;22.30;77.90;;;;;;5069437;28;20165;-78
2021/09/10 08:23:52;;;;;;;6.78;5.35;;;22.40;77.60;;;;;;5069322;28;20077;-78
2021/09/10 08:26:18;;;;;;;5.20;4.53;;;22.50;77.30;;;;;;5068877;28;20030;-79
2021/09/10 08:28:44;;;;;;;5.55;3.40;;;22.50;77.20;;;;;;5069988;28;20039;-79
2021/09/10 08:31:10;;;;;;;6.72;5.47;;;22.60;77.00;;;;;;5072750;28;20023;-80
2021/09/10 08:33:36;;;;;;;6.18;3.83;;;22.70;76.80;;;;;;5073040;28;20028;-79
2021/09/10 08:36:02;;;;;;;4.35;3.65;;;22.70;76.70;;;;;;5072095;28;20033;-79
2021/09/10 08:38:28;;;;;;;6.82;5.55;;;22.80;76.60;;;;;;5072086;28;20031;-79
2021/09/10 08:40:58;;;;;;;6.40;4.85;;;22.80;76.40;;;;;;5072674;28;20052;-80
2021/09/10 08:43:25;;;;;;;10.00;7.65;;;22.80;76.20;;;;;;5069590;28;20021;-80
2021/09/10 08:45:51;;;;;;;8.35;5.75;;;22.80;76.10;;;;;;5064034;28;20024;-79
2021/09/10 08:48:18;;;;;;;8.30;6.82;;;22.70;76.30;;;;;;5072471;28;20021;-79
2021/09/10 08:50:45;;;;;;;5.60;3.95;;;22.70;76.30;;;;;;5072586;28;20028;-79
2021/09/10 08:53:11;;;;;;;8.70;6.03;;;22.70;76.20;;;;;;5067703;28;20062;-78
2021/09/10 08:55:37;;;;;;;5.63;3.78;;;22.80;76.00;;;;;;5069114;28;20032;-80
2021/09/10 08:58:02;;;;;;;5.38;4.35;;;22.90;75.90;;;;;;5072105;28;20449;-79
2021/09/10 09:00:33;;;;;;;5.20;4.13;;;22.90;75.70;;;;;;5071604;28;20040;-80
2021/09/10 09:03:01;;;;;;;6.00;4.35;;;23.00;75.70;;;;;;5070280;28;20610;-78
2021/09/10 09:05:28;;;;;;;9.80;7.32;;;23.00;75.50;;;;;;5072017;28;20111;-79
2021/09/10 09:08:14;;;;;;;6.10;4.03;;;23.10;75.20;;;;;;5069068;28;20069;-79
2021/09/10 09:11:03;;;;;;;8.10;6.10;;;23.10;75.20;;;;;;5065426;28;20019;-79
2021/09/10 09:13:34;;;;;;;5.10;4.60;;;23.10;75.10;;;;;;5065591;28;20107;-78
2021/09/10 09:16:13;;;;;;;6.10;4.70;;;23.00;75.10;;;;;;5063503;28;20037;-78
2021/09/10 09:18:45;;;;;;;8.52;5.25;;;23.10;75.10;;;;;;5066844;28;20442;-77
2021/09/10 09:21:11;;;;;;;6.38;4.88;;;23.10;75.00;;;;;;5065840;28;20036;-77
2021/09/10 09:23:37;;;;;;;7.53;4.90;;;23.10;74.90;;;;;;5065032;28;20017;-78
2021/09/10 09:26:14;;;;;;;5.97;4.80;;;23.20;74.90;;;;;;5065218;28;20441;-78
2021/09/10 09:28:40;;;;;;;6.15;4.38;;;23.30;74.70;;;;;;5066217;28;20509;-77
2021/09/10 09:31:10;;;;;;;5.63;4.35;;;23.40;74.50;;;;;;5067147;28;20052;-78
2021/09/10 09:33:45;;;;;;;5.60;3.63;;;23.50;74.30;;;;;;5063780;28;20137;-79
2021/09/10 09:36:16;;;;;;;7.53;5.82;;;23.70;74.10;;;;;;5066751;28;20498;-79
2021/09/10 09:38:43;;;;;;;5.38;4.70;;;23.70;73.70;;;;;;5066620;28;20028;-79
2021/09/10 09:41:16;;;;;;;5.72;3.65;;;23.70;73.60;;;;;;5063454;28;20036;-79
2021/09/10 09:43:44;;;;;;;6.82;5.10;;;23.90;73.50;;;;;;5066232;28;20054;-79
2021/09/10 09:46:16;;;;;;;6.00;4.07;;;24.00;73.20;;;;;;5069156;28;20029;-81
2021/09/10 09:48:44;;;;;;;;;;;24.00;73.00;;;;;;5065095;28;20034;-81
2021/09/10 09:51:15;;;;;;;4.57;4.00;;;24.10;72.90;;;;;;5068994;28;20400;-80
2021/09/10 09:53:41;;;;;;;7.82;5.40;;;24.10;72.80;;;;;;5076535;28;20077;-81
2021/09/10 09:56:08;;;;;;;6.88;5.72;;;24.20;72.40;;;;;;5068130;28;20039;-80
2021/09/10 09:58:35;;;;;;;5.55;4.50;;;24.30;72.00;;;;;;5073593;28;20016;-81
2021/09/10 10:01:01;;;;;;;6.18;4.45;;;24.30;71.90;;;;;;5072374;28;20024;-81
2021/09/10 10:03:27;;;;;;;6.30;4.28;;;24.30;71.80;;;;;;5082225;28;20020;-83
2021/09/10 10:06:01;;;;;;;4.00;3.20;;;24.50;71.80;;;;;;5079837;28;20440;-81
2021/09/10 10:08:50;;;;;;;6.82;4.22;;;24.60;71.50;;;;;;5089991;28;20029;-81
2021/09/10 10:11:19;;;;;;;3.40;2.63;;;24.80;71.20;;;;;;5069199;28;20471;-81
2021/09/10 10:13:46;;;;;;;4.10;3.55;;;25.00;70.90;;;;;;5075878;28;20025;-82
2021/09/10 10:16:33;;;;;;;4.93;4.18;;;25.10;70.60;;;;;;5072387;28;20040;-82
2021/09/10 10:18:58;;;;;;;3.70;3.30;;;25.10;70.10;;;;;;5078032;28;20078;-81
2021/09/10 10:21:47;;;;;;;4.22;2.97;;;25.10;69.90;;;;;;5065945;28;20029;-79
2021/09/10 10:24:46;;;;;;;3.47;3.15;;;25.20;69.80;;;;;;5071257;28;20027;-78
2021/09/10 10:27:43;;;;;;;4.15;3.30;;;25.30;69.60;;;;;;5067075;28;20027;-78
2021/09/10 10:30:18;;;;;;;5.72;3.67;;;25.30;69.10;;;;;;5071910;28;20145;-76
2021/09/10 10:32:43;;;;;;;5.30;3.33;;;25.30;68.90;;;;;;5077386;28;20123;-77
2021/09/10 10:35:17;;;;;;;5.78;4.20;;;25.20;68.80;;;;;;5078115;28;20166;-77
2021/09/10 10:37:47;;;;;;;3.47;2.70;;;25.10;69.40;;;;;;5071276;28;20040;-75
2021/09/10 10:40:26;;;;;;;8.13;4.80;;;25.20;68.90;;;;;;5061790;28;20031;-76
2021/09/10 10:42:53;;;;;;;5.75;3.60;;;25.20;68.60;;;;;;5075659;28;20033;-77
2021/09/10 10:45:44;;;;;;;4.88;3.00;;;25.20;68.60;;;;;;5071077;28;20028;-77
2021/09/10 10:48:34;;;;;;;3.22;2.67;;;25.30;68.60;;;;;;5065648;28;20027;-79
2021/09/10 10:51:21;;;;;;;3.13;2.28;;;25.30;68.60;;;;;;5076238;28;20067;-79
2021/09/10 10:53:46;;;;;;;2.35;1.90;;;25.40;68.50;;;;;;5057237;28;20039;-79
2021/09/10 10:56:24;;;;;;;4.35;3.00;;;25.40;68.40;;;;;;5063251;28;20126;-79
2021/09/10 10:59:27;;;;;;;3.22;2.50;;;25.30;68.30;;;;;;5067884;28;20032;-79
2021/09/10 11:02:36;;;;;;;2.35;1.90;;;25.30;68.40;;;;;;5073811;28;20029;-79
2021/09/10 11:05:17;;;;;;;3.83;1.95;;;25.30;68.70;;;;;;5068288;28;20413;-79
2021/09/10 11:07:44;;;;;;;3.38;2.65;;;25.20;69.00;;;;;;5057616;28;20036;-78
2021/09/10 11:10:12;;;;;;;3.00;2.50;;;25.10;69.00;;;;;;5068910;28;20040;-78
2021/09/10 11:12:39;;;;;;;5.60;3.13;;;25.20;69.10;;;;;;5073989;28;20107;-79
2021/09/10 11:15:30;;;;;;;4.28;2.95;;;25.20;69.10;;;;;;5072781;28;20035;-80
2021/09/10 11:18:04;;;;;;;5.40;4.22;;;25.20;69.10;;;;;;5073041;28;20024;-80
2021/09/10 11:20:46;;;;;;;4.72;3.67;;;25.30;69.00;;;;;;5061612;28;20070;-79
2021/09/10 11:23:19;;;;;;;4.60;3.20;;;25.40;68.50;;;;;;5060163;28;20024;-81
2021/09/10 11:25:53;;;;;;;4.80;3.28;;;25.40;68.50;;;;;;5062767;28;20510;-78
2021/09/10 11:28:19;;;;;;;2.40;2.17;;;25.60;68.40;;;;;;5067164;28;20115;-81
2021/09/10 11:30:47;;;;;;;2.67;2.10;;;25.80;68.10;;;;;;5071942;28;20029;-79
2021/09/10 11:33:13;;;;;;;3.88;2.10;;;26.00;67.60;;;;;;5064519;28;20028;-78
2021/09/10 11:35:40;;;;;;;4.78;3.30;;;26.20;67.00;;;;;;5078767;28;20381;-81
2021/09/10 11:38:15;;;;;;;5.03;3.20;;;26.30;66.40;;;;;;5076941;28;20024;-80
2021/09/10 11:40:44;;;;;;;3.67;2.80;;;26.30;65.70;;;;;;5076356;28;20024;-80
2021/09/10 11:43:12;;;;;;;5.82;3.65;;;26.30;65.70;;;;;;5072706;28;20020;-80
2021/09/10 11:45:45;;;;;;;3.83;2.65;;;26.30;65.30;;;;;;5061966;28;20027;-79
2021/09/10 11:48:14;;;;;;;4.35;2.78;;;26.20;65.30;;;;;;5069423;28;20029;-80
2021/09/10 11:50:51;;;;;;;4.78;2.47;;;26.10;65.20;;;;;;5077855;28;20047;-82
2021/09/10 11:53:28;;;;;;;5.43;3.22;;;26.00;65.50;;;;;;5073739;28;20028;-79
2021/09/10 11:55:59;;;;;;;4.07;2.85;;;25.90;65.80;;;;;;5081764;28;20032;-80
2021/09/10 11:58:34;;;;;;;3.67;2.72;;;25.70;66.40;;;;;;5077676;28;20039;-81
2021/09/10 12:01:40;;;;;;;3.15;2.47;;;25.60;67.10;;;;;;5082641;28;20447;-78
2021/09/10 12:04:07;;;;;;;3.80;2.08;;;25.40;67.50;;;;;;5065717;28;20033;-79
2021/09/10 12:06:34;;;;;;;5.05;3.92;;;25.30;67.90;;;;;;5076888;28;20054;-79
2021/09/10 12:09:12;;;;;;;5.30;2.60;;;25.20;68.20;;;;;;5073065;28;20646;-78
2021/09/10 12:11:55;;;;;;;4.57;2.67;;;25.00;68.70;;;;;;5082231;28;20171;-78
2021/09/10 12:14:57;;;;;;;2.95;2.20;;;25.00;68.90;;;;;;5069746;28;20030;-77
2021/09/10 12:17:27;;;;;;;4.60;3.00;;;24.90;69.20;;;;;;5072623;28;20513;-79
2021/09/10 12:20:14;;;;;;;4.72;3.20;;;24.80;69.70;;;;;;5075269;28;20025;-79
2021/09/10 12:22:49;;;;;;;5.55;3.10;;;24.60;70.40;;;;;;5070906;28;20032;-81
2021/09/10 12:25:45;;;;;;;4.35;3.05;;;24.40;70.90;;;;;;5085631;28;20052;-81
2021/09/10 12:28:20;;;;;;;2.70;2.45;;;24.30;71.40;;;;;;5073682;28;20039;-83
2021/09/10 12:31:07;;;;;;;3.15;2.35;;;24.30;71.50;;;;;;5072779;28;20055;-81
2021/09/10 12:33:34;;;;;;;4.47;2.65;;;24.30;71.80;;;;;;5075903;28;20544;-81
2021/09/10 12:36:01;;;;;;;3.13;2.00;;;24.20;71.80;;;;;;5073459;28;20774;-79
2021/09/10 12:38:36;;;;;;;3.80;2.80;;;24.20;71.90;;;;;;5068409;28;20020;-78
2021/09/10 12:41:02;;;;;;;3.15;2.42;;;24.10;72.20;;;;;;5067909;28;20399;-77
2021/09/10 12:43:28;;;;;;;2.53;2.13;;;24.00;72.40;;;;;;5074304;28;20024;-79
2021/09/10 12:45:55;;;;;;;2.50;2.05;;;23.90;72.60;;;;;;5072801;28;20040;-78
2021/09/10 12:48:21;;;;;;;3.17;2.30;;;23.90;72.90;;;;;;5070081;28;20074;-79
2021/09/10 12:50:46;;;;;;;2.47;1.65;;;23.80;73.10;;;;;;5073566;28;20033;-78